Time;durP1;ratioP1;P1;durP2;ratioP2;P2;SDS_P1;SDS_P2;PMS_P1;PMS_P2;Temp;Humidity;BMP_temperature;BMP_pressure;BME280_temperature;BME280_humidity;BME280_pressure;Samples;Min_cycle;Max_cycle;Signal;HPM_P1;HPM_P2
2021/10/21 00:01:47;;;;;;;2.80;1.47;;;16.90;99.90;;;;;;5055983;28;20870;-69
2021/10/21 00:04:19;;;;;;;2.30;1.40;;;16.80;99.90;;;;;;5048843;28;20472;-69
2021/10/21 00:06:50;;;;;;;3.10;1.40;;;16.70;99.90;;;;;;5064488;28;20451;-69
2021/10/21 00:09:20;;;;;;;2.30;1.47;;;16.70;99.90;;;;;;5065472;28;20460;-69
2021/10/21 00:11:53;;;;;;;2.80;1.50;;;16.70;99.90;;;;;;5059004;28;20547;-69
2021/10/21 00:14:24;;;;;;;1.63;1.20;;;16.60;99.90;;;;;;5047157;28;20460;-69
2021/10/21 00:16:55;;;;;;;2.07;1.47;;;16.60;99.90;;;;;;5064851;28;20570;-69
2021/10/21 00:19:26;;;;;;;2.13;1.23;;;16.50;99.90;;;;;;5048703;28;20546;-69
2021/10/21 00:21:58;;;;;;;2.10;1.50;;;16.50;99.90;;;;;;5056579;28;20478;-69
2021/10/21 00:24:29;;;;;;;2.10;1.90;;;16.40;99.90;;;;;;5046592;28;20447;-69
2021/10/21 00:27:01;;;;;;;2.60;1.40;;;16.50;99.90;;;;;;5049177;28;20457;-69
2021/10/21 00:29:33;;;;;;;2.07;1.20;;;16.50;99.90;;;;;;5049185;28;20467;-69
2021/10/21 00:32:04;;;;;;;3.47;1.30;;;16.40;99.90;;;;;;5059120;28;20464;-70
2021/10/21 00:34:35;;;;;;;1.53;1.37;;;16.30;99.90;;;;;;5059318;28;20471;-69
2021/10/21 00:37:05;;;;;;;3.90;1.60;;;16.40;99.90;;;;;;5062281;28;20506;-69
2021/10/21 00:39:36;;;;;;;3.87;1.50;;;16.40;99.90;;;;;;5048237;28;20468;-69
2021/10/21 00:42:09;;;;;;;4.23;1.27;;;16.30;99.90;;;;;;5066467;28;20460;-69
2021/10/21 00:44:39;;;;;;;3.70;1.90;;;16.20;99.90;;;;;;5040392;28;20483;-68
2021/10/21 00:47:10;;;;;;;1.87;1.70;;;16.20;99.90;;;;;;5054347;28;20970;-68
2021/10/21 00:49:41;;;;;;;4.33;1.87;;;16.20;99.90;;;;;;5051819;28;20457;-68
2021/10/21 00:52:13;;;;;;;2.87;1.80;;;16.10;99.90;;;;;;5067158;28;21027;-68
2021/10/21 00:54:46;;;;;;;2.50;1.33;;;16.10;99.90;;;;;;5063307;28;20550;-68
2021/10/21 00:57:19;;;;;;;4.17;1.73;;;16.10;99.90;;;;;;5049273;28;20488;-68
2021/10/21 00:59:50;;;;;;;2.77;1.70;;;16.00;99.90;;;;;;5047738;28;20457;-68
2021/10/21 01:02:21;;;;;;;2.40;1.67;;;16.00;99.90;;;;;;5055177;28;20449;-68
2021/10/21 01:04:52;;;;;;;1.83;1.60;;;16.00;99.90;;;;;;5042122;28;20988;-68
2021/10/21 01:07:24;;;;;;;2.10;1.90;;;15.90;99.90;;;;;;5057838;28;20446;-69
2021/10/21 01:09:56;;;;;;;2.97;2.00;;;15.90;99.90;;;;;;5062170;28;20813;-68
2021/10/21 01:12:28;;;;;;;3.03;2.00;;;15.80;99.90;;;;;;5059456;28;20463;-68
2021/10/21 01:15:21;;;;;;;4.30;2.30;;;15.70;99.90;;;;;;5049297;28;20494;-68
2021/10/21 01:17:52;;;;;;;2.20;1.90;;;15.60;99.90;;;;;;5041121;28;20488;-68
2021/10/21 01:20:26;;;;;;;2.10;1.77;;;15.50;99.90;;;;;;5056835;28;20556;-68
2021/10/21 01:22:57;;;;;;;3.73;1.87;;;15.40;99.90;;;;;;5063359;28;20474;-68
2021/10/21 01:25:28;;;;;;;2.67;2.00;;;15.30;99.90;;;;;;5056840;28;20456;-68
2021/10/21 01:27:59;;;;;;;2.90;1.90;;;15.20;99.90;;;;;;5048200;28;20466;-68
2021/10/21 01:30:30;;;;;;;4.00;2.70;;;15.20;99.90;;;;;;5049797;28;20459;-68
2021/10/21 01:33:01;;;;;;;3.57;2.10;;;15.10;99.90;;;;;;5068869;28;20801;-68
2021/10/21 01:35:33;;;;;;;2.10;1.80;;;15.00;99.90;;;;;;5050093;28;20469;-69
2021/10/21 01:38:04;;;;;;;3.17;2.30;;;14.90;99.90;;;;;;5049624;28;20487;-69
2021/10/21 01:40:35;;;;;;;4.43;2.43;;;14.80;99.90;;;;;;5040993;28;20486;-69
2021/10/21 01:43:08;;;;;;;3.87;2.30;;;14.70;99.90;;;;;;5069571;28;20456;-69
2021/10/21 01:45:39;;;;;;;2.50;2.30;;;14.70;99.90;;;;;;5047982;28;20453;-69
2021/10/21 01:48:10;;;;;;;4.80;3.20;;;14.70;99.90;;;;;;5053352;28;20468;-69
2021/10/21 01:50:42;;;;;;;4.43;4.00;;;14.60;99.90;;;;;;5062013;28;20471;-69
2021/10/21 01:53:13;;;;;;;13.33;12.03;;;14.60;99.90;;;;;;5056480;28;20455;-69
2021/10/21 01:55:44;;;;;;;9.10;4.60;;;14.60;99.90;;;;;;5062212;28;20451;-69
2021/10/21 01:58:15;;;;;;;3.27;2.97;;;14.50;99.90;;;;;;5049803;28;20496;-69
2021/10/21 02:00:45;;;;;;;3.93;3.23;;;14.40;99.90;;;;;;5034162;28;20452;-69
2021/10/21 02:03:16;;;;;;;14.13;12.60;;;14.40;99.90;;;;;;5046499;28;20949;-69
2021/10/21 02:05:49;;;;;;;5.07;3.50;;;14.30;99.90;;;;;;5049438;28;20452;-69
2021/10/21 02:08:20;;;;;;;3.00;2.80;;;14.30;99.90;;;;;;5047605;28;20444;-69
2021/10/21 02:10:51;;;;;;;4.43;3.23;;;14.20;99.90;;;;;;5049169;28;20463;-69
2021/10/21 02:13:21;;;;;;;3.83;3.40;;;14.10;99.90;;;;;;5047125;28;20452;-70
2021/10/21 02:15:52;;;;;;;7.10;4.27;;;14.00;99.90;;;;;;5049365;28;20448;-69
2021/10/21 02:18:23;;;;;;;5.17;4.60;;;14.00;99.90;;;;;;5045765;28;20570;-69
2021/10/21 02:20:56;;;;;;;5.27;4.30;;;14.00;99.90;;;;;;5049193;28;20484;-69
2021/10/21 02:23:27;;;;;;;5.37;4.80;;;14.10;99.90;;;;;;5055432;28;20464;-69
2021/10/21 02:25:57;;;;;;;6.67;5.23;;;14.20;99.90;;;;;;5064115;28;20455;-69
2021/10/21 02:28:29;;;;;;;6.20;4.30;;;14.10;99.90;;;;;;5044131;28;20851;-69
2021/10/21 02:31:00;;;;;;;3.97;3.67;;;14.00;99.90;;;;;;5055697;28;21002;-69
2021/10/21 02:33:31;;;;;;;5.13;4.67;;;14.00;99.90;;;;;;5063387;28;20491;-69
2021/10/21 02:36:04;;;;;;;4.40;4.00;;;14.00;99.90;;;;;;5056537;28;20995;-69
2021/10/21 02:38:34;;;;;;;5.37;4.63;;;13.90;99.90;;;;;;5063804;28;20479;-69
2021/10/21 02:41:05;;;;;;;4.90;4.07;;;13.90;99.90;;;;;;5046155;28;20580;-69
2021/10/21 02:43:37;;;;;;;5.30;4.83;;;13.90;99.90;;;;;;5055406;28;20501;-70
2021/10/21 02:46:08;;;;;;;4.80;4.30;;;13.90;99.90;;;;;;5047362;28;21005;-69
2021/10/21 02:48:39;;;;;;;6.13;4.93;;;13.80;99.90;;;;;;5046567;28;20869;-69
2021/10/21 02:51:12;;;;;;;4.80;4.40;;;13.90;99.90;;;;;;5065039;28;20461;-70
2021/10/21 02:53:42;;;;;;;4.77;4.40;;;13.90;99.90;;;;;;5055416;28;20465;-69
2021/10/21 02:56:13;;;;;;;4.57;4.17;;;13.90;99.90;;;;;;5053782;28;20463;-69
2021/10/21 02:58:44;;;;;;;4.43;4.03;;;13.80;99.90;;;;;;5041142;28;20605;-69
2021/10/21 03:01:15;;;;;;;5.90;4.70;;;13.80;99.90;;;;;;5057757;28;20469;-70
2021/10/21 03:03:49;;;;;;;5.87;5.37;;;13.80;99.90;;;;;;5061306;28;20930;-70
2021/10/21 03:06:21;;;;;;;4.87;4.47;;;13.80;99.90;;;;;;5058279;28;20883;-70
2021/10/21 03:08:52;;;;;;;4.60;4.23;;;13.80;99.90;;;;;;5052691;28;20830;-70
2021/10/21 03:11:23;;;;;;;4.70;4.30;;;13.70;99.90;;;;;;5047106;28;20472;-70
2021/10/21 03:13:54;;;;;;;4.70;4.23;;;13.70;99.90;;;;;;5059152;28;20452;-70
2021/10/21 03:16:29;;;;;;;6.23;4.43;;;13.70;99.90;;;;;;5049918;28;20953;-70
2021/10/21 03:18:59;;;;;;;6.43;5.10;;;13.80;99.90;;;;;;5046461;28;20494;-70
2021/10/21 03:21:32;;;;;;;5.60;5.10;;;13.90;99.90;;;;;;5059093;28;20803;-70
2021/10/21 03:24:03;;;;;;;6.07;5.47;;;13.80;99.90;;;;;;5053737;28;20461;-69
2021/10/21 03:26:34;;;;;;;5.93;5.20;;;13.80;99.90;;;;;;5062878;28;20967;-70
2021/10/21 03:29:05;;;;;;;7.00;5.33;;;13.80;99.90;;;;;;5051004;28;20950;-70
2021/10/21 03:31:36;;;;;;;5.37;4.73;;;13.70;99.90;;;;;;5052002;28;20456;-69
2021/10/21 03:34:07;;;;;;;7.23;5.00;;;13.60;99.90;;;;;;5056747;28;20515;-69
2021/10/21 03:36:39;;;;;;;8.30;5.13;;;13.60;99.90;;;;;;5072146;28;20451;-69
2021/10/21 03:39:10;;;;;;;6.83;4.97;;;13.50;99.90;;;;;;5059348;28;21003;-69
2021/10/21 03:41:41;;;;;;;6.63;5.93;;;13.50;99.90;;;;;;5040210;28;20447;-69
2021/10/21 03:44:12;;;;;;;6.13;5.53;;;13.50;99.90;;;;;;5060221;28;20464;-69
2021/10/21 03:46:42;;;;;;;5.83;5.23;;;13.50;99.90;;;;;;5036175;28;20460;-69
2021/10/21 03:49:13;;;;;;;5.30;4.90;;;13.40;99.90;;;;;;5049547;28;20466;-69
2021/10/21 03:51:46;;;;;;;6.70;6.00;;;13.30;99.90;;;;;;5053284;28;20973;-69
2021/10/21 03:54:16;;;;;;;5.50;5.00;;;13.30;99.90;;;;;;5066171;28;20463;-70
2021/10/21 03:56:47;;;;;;;8.00;6.27;;;13.30;99.90;;;;;;5051888;28;20538;-69
2021/10/21 03:59:18;;;;;;;5.90;5.40;;;13.10;99.90;;;;;;5048362;28;20491;-69
2021/10/21 04:01:49;;;;;;;6.80;5.60;;;13.10;99.90;;;;;;5064881;28;20547;-69
2021/10/21 04:04:19;;;;;;;5.43;4.90;;;13.10;99.90;;;;;;5054740;28;20525;-69
2021/10/21 04:06:57;;;;;;;6.73;5.23;;;13.00;99.90;;;;;;5055661;28;20478;-69
2021/10/21 04:09:28;;;;;;;5.30;4.90;;;13.00;99.90;;;;;;5061137;28;20751;-69
2021/10/21 04:11:58;;;;;;;6.30;5.80;;;12.90;99.90;;;;;;5050075;28;20475;-69
2021/10/21 04:14:29;;;;;;;5.20;4.80;;;12.90;99.90;;;;;;5061870;28;20459;-69
2021/10/21 04:17:00;;;;;;;6.00;5.17;;;12.90;99.90;;;;;;5060061;28;20822;-69
2021/10/21 04:19:31;;;;;;;6.00;5.50;;;12.90;99.90;;;;;;5051206;28;20480;-69
2021/10/21 04:22:03;;;;;;;6.40;5.60;;;13.00;99.90;;;;;;5064727;28;20459;-69
2021/10/21 04:24:34;;;;;;;5.77;5.20;;;12.90;99.90;;;;;;5052153;28;20469;-69
2021/10/21 04:27:05;;;;;;;5.80;5.30;;;12.90;99.90;;;;;;5058507;28;20453;-69
2021/10/21 04:29:36;;;;;;;6.20;5.17;;;12.80;99.90;;;;;;5049987;28;20978;-69
2021/10/21 04:32:08;;;;;;;7.40;5.83;;;12.70;99.90;;;;;;5066868;28;20466;-69
2021/10/21 04:34:38;;;;;;;7.93;5.13;;;12.60;99.90;;;;;;5057875;28;20471;-69
2021/10/21 04:37:11;;;;;;;5.97;5.13;;;12.60;99.90;;;;;;5063022;28;20948;-69
2021/10/21 04:39:42;;;;;;;5.97;5.37;;;12.50;99.90;;;;;;5045717;28;20494;-69
2021/10/21 04:42:13;;;;;;;5.47;5.07;;;12.40;99.90;;;;;;5071568;28;20459;-69
2021/10/21 04:44:44;;;;;;;6.57;4.70;;;12.40;99.90;;;;;;5058701;28;20464;-69
2021/10/21 04:47:14;;;;;;;5.90;5.27;;;12.40;99.90;;;;;;5070867;28;20463;-69
2021/10/21 04:49:45;;;;;;;6.50;5.57;;;12.40;99.90;;;;;;5040025;28;20916;-69
2021/10/21 04:52:18;;;;;;;5.70;5.00;;;12.40;99.90;;;;;;5070572;28;20471;-69
2021/10/21 04:54:48;;;;;;;6.03;5.53;;;12.30;99.90;;;;;;5035679;28;20475;-69
2021/10/21 04:57:19;;;;;;;5.50;5.00;;;12.40;99.90;;;;;;5056758;28;20475;-69
2021/10/21 04:59:50;;;;;;;6.20;5.40;;;12.40;99.90;;;;;;5049267;28;20499;-69
2021/10/21 05:02:21;;;;;;;6.60;4.93;;;12.40;99.90;;;;;;5051602;28;20475;-69
2021/10/21 05:04:52;;;;;;;6.00;5.47;;;12.30;99.90;;;;;;5050958;28;20463;-69
2021/10/21 05:07:24;;;;;;;6.00;5.50;;;12.30;99.90;;;;;;5049680;28;20469;-69
2021/10/21 05:09:58;;;;;;;5.77;5.00;;;12.20;99.90;;;;;;5065523;28;20452;-69
2021/10/21 05:12:43;;;;;;;6.50;5.90;;;12.20;99.90;;;;;;5034983;28;20538;-69
2021/10/21 05:15:14;;;;;;;5.60;5.10;;;12.30;99.90;;;;;;5059337;28;20945;-69
2021/10/21 05:17:45;;;;;;;6.73;6.13;;;12.20;99.90;;;;;;5055709;28;20463;-69
2021/10/21 05:20:16;;;;;;;6.17;5.60;;;12.10;99.90;;;;;;5062093;28;20503;-69
2021/10/21 05:22:48;;;;;;;5.37;4.97;;;12.00;99.90;;;;;;5057563;28;20554;-69
2021/10/21 05:25:19;;;;;;;5.80;5.30;;;12.00;99.90;;;;;;5059634;28;20462;-69
2021/10/21 05:27:50;;;;;;;6.10;5.60;;;12.00;99.90;;;;;;5061192;28;20474;-69
2021/10/21 05:30:22;;;;;;;5.90;5.40;;;12.00;99.90;;;;;;5060140;28;20474;-69
2021/10/21 05:32:52;;;;;;;6.27;5.77;;;12.00;99.90;;;;;;5051719;28;20462;-69
2021/10/21 05:35:23;;;;;;;5.97;5.50;;;12.00;99.90;;;;;;5049278;28;20543;-69
2021/10/21 05:37:56;;;;;;;7.03;6.33;;;11.90;99.90;;;;;;5058300;28;20800;-69
2021/10/21 05:40:27;;;;;;;9.47;5.93;;;11.90;99.90;;;;;;5063332;28;20509;-69
2021/10/21 05:42:58;;;;;;;5.93;5.53;;;11.90;99.90;;;;;;5057966;28;20479;-69
2021/10/21 05:45:29;;;;;;;6.57;6.03;;;11.80;99.90;;;;;;5056136;28;20467;-69
2021/10/21 05:48:00;;;;;;;5.77;5.27;;;11.90;99.90;;;;;;5060288;28;20487;-69
2021/10/21 05:50:30;;;;;;;5.43;4.93;;;11.90;99.90;;;;;;5052445;28;20456;-69
2021/10/21 05:53:03;;;;;;;5.40;4.90;;;11.90;99.90;;;;;;5059536;28;20909;-69
2021/10/21 05:55:34;;;;;;;6.07;5.57;;;12.00;99.90;;;;;;5058552;28;20451;-69
2021/10/21 05:58:05;;;;;;;5.93;5.43;;;12.00;99.90;;;;;;5054561;28;20487;-69
2021/10/21 06:00:36;;;;;;;5.90;5.40;;;12.10;99.90;;;;;;5067038;28;20833;-69
2021/10/21 06:03:06;;;;;;;6.20;5.60;;;12.10;99.90;;;;;;5068683;28;20517;-69
2021/10/21 06:05:38;;;;;;;5.80;5.30;;;12.20;99.90;;;;;;5052959;28;20460;-69
2021/10/21 06:08:10;;;;;;;5.70;5.20;;;12.20;99.90;;;;;;5065045;28;20750;-69
2021/10/21 06:10:41;;;;;;;6.40;5.90;;;12.20;99.90;;;;;;5051756;28;20451;-69
2021/10/21 06:13:14;;;;;;;6.00;5.40;;;12.30;99.90;;;;;;5053409;28;20818;-69
2021/10/21 06:15:45;;;;;;;6.40;5.90;;;12.30;99.90;;;;;;5034059;28;20448;-69
2021/10/21 06:18:16;;;;;;;6.63;5.63;;;12.20;99.90;;;;;;5054231;28;20456;-69
2021/10/21 06:20:46;;;;;;;5.93;5.53;;;12.20;99.90;;;;;;5056200;28;20484;-69
2021/10/21 06:23:19;;;;;;;6.50;5.90;;;12.10;99.90;;;;;;5050860;28;20823;-69
2021/10/21 06:25:50;;;;;;;6.53;5.90;;;12.10;99.90;;;;;;5062781;28;20447;-69
2021/10/21 06:28:20;;;;;;;5.40;5.00;;;12.00;99.90;;;;;;5051018;28;20472;-69
2021/10/21 06:30:51;;;;;;;6.03;5.63;;;12.00;99.90;;;;;;5054354;28;20824;-69
2021/10/21 06:33:22;;;;;;;6.30;5.63;;;11.90;99.90;;;;;;5065257;28;20455;-69
2021/10/21 06:35:53;;;;;;;5.90;5.40;;;11.90;99.90;;;;;;5054843;28;20546;-69
2021/10/21 06:38:25;;;;;;;5.70;5.20;;;12.00;99.90;;;;;;5057578;28;20514;-69
2021/10/21 06:40:56;;;;;;;4.80;4.50;;;12.10;99.90;;;;;;5056427;28;20495;-69
2021/10/21 06:43:27;;;;;;;4.93;4.63;;;12.10;99.90;;;;;;5049330;28;20467;-69
2021/10/21 06:46:00;;;;;;;6.10;5.33;;;12.10;99.90;;;;;;5055394;28;20475;-69
2021/10/21 06:48:31;;;;;;;5.60;5.20;;;12.10;99.90;;;;;;5054847;28;20829;-69
2021/10/21 06:51:02;;;;;;;5.57;4.87;;;12.10;99.90;;;;;;5052534;28;20490;-69
2021/10/21 06:53:35;;;;;;;5.83;5.43;;;12.10;99.90;;;;;;5058727;28;20460;-69
2021/10/21 06:56:06;;;;;;;5.50;5.10;;;12.20;99.90;;;;;;5056315;28;20467;-69
2021/10/21 06:58:37;;;;;;;6.10;5.50;;;12.20;99.90;;;;;;5052658;28;20490;-69
2021/10/21 07:01:07;;;;;;;6.50;5.90;;;12.20;99.90;;;;;;5060352;28;20475;-69
2021/10/21 07:03:39;;;;;;;6.43;5.53;;;12.30;99.90;;;;;;5066731;28;20460;-69
2021/10/21 07:06:09;;;;;;;5.97;5.47;;;12.20;99.90;;;;;;5060690;28;20837;-69
2021/10/21 07:08:42;;;;;;;6.20;5.60;;;12.10;99.90;;;;;;5058751;28;20464;-69
2021/10/21 07:11:12;;;;;;;6.90;6.30;;;12.00;99.90;;;;;;5061035;28;20453;-69
2021/10/21 07:13:43;;;;;;;6.60;6.10;;;12.00;99.90;;;;;;5046934;28;20490;-69
2021/10/21 07:16:15;;;;;;;6.17;5.67;;;12.00;99.90;;;;;;5072846;28;20451;-69
2021/10/21 07:18:46;;;;;;;7.50;6.70;;;12.00;99.90;;;;;;5061588;28;20470;-69
2021/10/21 07:21:17;;;;;;;6.50;6.00;;;12.00;99.90;;;;;;5058181;28;20475;-69
2021/10/21 07:23:50;;;;;;;8.40;7.43;;;12.10;99.90;;;;;;5057264;28;20818;-69
2021/10/21 07:26:20;;;;;;;6.97;6.27;;;12.00;99.90;;;;;;5061802;28;20857;-70
2021/10/21 07:28:51;;;;;;;6.97;6.47;;;12.00;99.90;;;;;;5052946;28;20560;-70
2021/10/21 07:31:23;;;;;;;7.20;6.50;;;12.00;99.90;;;;;;5061876;28;20447;-69
2021/10/21 07:33:54;;;;;;;7.20;6.60;;;12.10;99.90;;;;;;5064261;28;20460;-70
2021/10/21 07:36:25;;;;;;;6.87;6.30;;;12.00;99.90;;;;;;5062056;28;20482;-69
2021/10/21 07:38:58;;;;;;;7.07;6.33;;;12.00;99.90;;;;;;5064584;28;20514;-69
2021/10/21 07:41:29;;;;;;;7.37;6.73;;;12.00;99.90;;;;;;5053041;28;20485;-70
2021/10/21 07:44:00;;;;;;;6.00;5.50;;;12.00;99.90;;;;;;5052074;28;20520;-70
2021/10/21 07:46:31;;;;;;;6.30;5.70;;;12.00;99.90;;;;;;5052510;28;20468;-69
2021/10/21 07:49:02;;;;;;;6.10;5.60;;;12.00;99.90;;;;;;5055430;28;20502;-69
2021/10/21 07:51:34;;;;;;;7.60;6.17;;;11.90;99.90;;;;;;5053784;28;20447;-70
2021/10/21 07:54:07;;;;;;;5.60;5.20;;;11.70;99.90;;;;;;5050269;28;20452;-69
2021/10/21 07:56:37;;;;;;;5.57;5.07;;;11.60;99.90;;;;;;5063506;28;20803;-69
2021/10/21 07:59:08;;;;;;;5.53;4.80;;;11.60;99.90;;;;;;5055532;28;20550;-69
2021/10/21 08:01:39;;;;;;;5.83;5.00;;;11.60;99.90;;;;;;5060229;28;20876;-69
2021/10/21 08:04:14;;;;;;;4.73;4.33;;;11.50;99.90;;;;;;5053431;28;20460;-70
2021/10/21 08:06:44;;;;;;;5.17;4.77;;;11.50;99.90;;;;;;5064295;28;20461;-70
2021/10/21 08:09:19;;;;;;;5.37;4.73;;;11.50;99.90;;;;;;5061187;28;20978;-69
2021/10/21 08:11:51;;;;;;;5.40;4.90;;;11.50;99.90;;;;;;5060386;28;20466;-70
2021/10/21 08:14:23;;;;;;;4.00;3.70;;;11.50;99.90;;;;;;5054375;28;20472;-69
2021/10/21 08:16:54;;;;;;;5.70;4.10;;;11.50;99.90;;;;;;5066372;28;20448;-68
2021/10/21 08:19:24;;;;;;;4.83;3.70;;;11.50;99.90;;;;;;5049892;28;20471;-68
2021/10/21 08:21:55;;;;;;;3.63;3.33;;;11.50;99.90;;;;;;5065715;28;20479;-68
2021/10/21 08:24:28;;;;;;;3.60;3.37;;;11.60;99.90;;;;;;5050657;28;20467;-68
2021/10/21 08:26:59;;;;;;;3.77;3.47;;;11.70;99.90;;;;;;5071848;28;20467;-68
2021/10/21 08:29:30;;;;;;;5.40;3.50;;;11.80;99.90;;;;;;5050036;28;20459;-68
2021/10/21 08:32:05;;;;;;;3.60;3.30;;;11.70;99.90;;;;;;5059632;28;20455;-68
2021/10/21 08:34:36;;;;;;;4.07;3.70;;;11.70;99.90;;;;;;5056835;28;20799;-70
2021/10/21 08:37:07;;;;;;;3.60;3.30;;;11.60;99.90;;;;;;5066712;28;20482;-68
2021/10/21 08:39:40;;;;;;;3.50;3.20;;;11.60;99.90;;;;;;5057863;28;20549;-70
2021/10/21 08:42:11;;;;;;;3.90;3.60;;;11.60;99.90;;;;;;5045307;28;20972;-68
2021/10/21 08:44:42;;;;;;;3.17;2.97;;;11.60;99.90;;;;;;5070984;28;20447;-69
2021/10/21 08:47:14;;;;;;;3.90;3.33;;;11.50;99.90;;;;;;5058579;28;20490;-69
2021/10/21 08:49:46;;;;;;;3.93;3.60;;;11.50;99.90;;;;;;5055271;28;20459;-69
2021/10/21 08:52:17;;;;;;;3.20;2.97;;;11.40;99.90;;;;;;5069909;28;20798;-69
2021/10/21 08:54:52;;;;;;;4.00;3.63;;;11.30;99.90;;;;;;5036429;28;20527;-69
2021/10/21 08:57:23;;;;;;;3.83;3.50;;;11.30;99.90;;;;;;5048692;28;20822;-69
2021/10/21 08:59:55;;;;;;;3.83;3.50;;;11.20;99.90;;;;;;5062789;28;20525;-69
2021/10/21 09:02:35;;;;;;;3.33;3.03;;;11.10;99.90;;;;;;5067170;28;20840;-69
2021/10/21 09:05:15;;;;;;;3.37;3.07;;;11.10;99.90;;;;;;5054659;28;20482;-69
2021/10/21 09:07:58;;;;;;;4.07;3.60;;;11.00;99.90;;;;;;5055883;28;20443;-69
2021/10/21 09:10:31;;;;;;;4.63;3.40;;;11.00;99.90;;;;;;5051057;28;20469;-69
2021/10/21 09:13:02;;;;;;;6.40;3.67;;;10.90;99.90;;;;;;5055539;28;20448;-70
2021/10/21 09:15:34;;;;;;;3.30;3.10;;;10.80;99.90;;;;;;5058091;28;20463;-69
2021/10/21 09:18:15;;;;;;;4.53;3.70;;;10.80;99.90;;;;;;5047592;28;20876;-69
2021/10/21 09:20:46;;;;;;;3.60;3.30;;;10.70;99.90;;;;;;5062929;28;20454;-69
2021/10/21 09:23:19;;;;;;;5.50;3.80;;;10.80;99.90;;;;;;5056748;28;20464;-69
2021/10/21 09:25:51;;;;;;;3.30;3.10;;;10.70;99.90;;;;;;5063612;28;20898;-68
2021/10/21 09:28:26;;;;;;;4.93;3.00;;;10.70;99.90;;;;;;5051101;28;20464;-69
2021/10/21 09:31:03;;;;;;;3.10;2.83;;;10.80;99.90;;;;;;5050481;28;20455;-69
2021/10/21 09:33:44;;;;;;;3.47;3.17;;;10.80;99.90;;;;;;5055007;28;20451;-69
2021/10/21 09:36:21;;;;;;;4.73;3.20;;;10.90;99.90;;;;;;5056840;28;20470;-70
2021/10/21 09:38:54;;;;;;;4.57;3.33;;;10.90;99.90;;;;;;5063489;28;20462;-69
2021/10/21 09:41:31;;;;;;;3.60;3.30;;;10.90;99.90;;;;;;5060150;28;20536;-69
2021/10/21 09:44:21;;;;;;;4.03;3.40;;;11.00;99.90;;;;;;5058493;28;20448;-69
2021/10/21 09:46:53;;;;;;;4.20;3.90;;;11.00;99.90;;;;;;5048245;28;20480;-69
2021/10/21 09:49:29;;;;;;;3.73;3.10;;;11.00;99.90;;;;;;5047712;28;20836;-69
2021/10/21 09:52:01;;;;;;;3.70;3.40;;;11.00;99.90;;;;;;5061778;28;20447;-69
2021/10/21 09:54:32;;;;;;;4.60;3.00;;;11.00;99.90;;;;;;5050665;28;20460;-68
2021/10/21 09:57:31;;;;;;;3.73;3.27;;;11.10;99.90;;;;;;5054424;28;20457;-69
2021/10/21 10:00:04;;;;;;;3.10;2.80;;;11.10;99.90;;;;;;5048352;28;20456;-69
2021/10/21 10:02:36;;;;;;;3.30;2.70;;;11.10;99.90;;;;;;5059228;28;20834;-69
2021/10/21 10:05:14;;;;;;;4.87;2.90;;;11.00;99.90;;;;;;5067747;28;20463;-69
2021/10/21 10:07:45;;;;;;;3.73;3.43;;;11.10;99.90;;;;;;5069648;28;20830;-69
2021/10/21 10:10:16;;;;;;;3.33;3.03;;;11.30;99.90;;;;;;5051021;28;20517;-69
2021/10/21 10:12:50;;;;;;;3.50;3.20;;;11.50;99.90;;;;;;5060988;28;20458;-69
2021/10/21 10:15:21;;;;;;;3.50;2.67;;;11.60;99.90;;;;;;5056929;28;20472;-69
2021/10/21 10:17:52;;;;;;;3.83;3.10;;;11.80;99.90;;;;;;5061821;28;20460;-69
2021/10/21 10:20:27;;;;;;;6.47;3.10;;;11.90;99.90;;;;;;5059075;28;20451;-69
2021/10/21 10:22:59;;;;;;;3.37;2.90;;;12.00;99.90;;;;;;5067145;28;20580;-69
2021/10/21 10:25:29;;;;;;;3.07;2.87;;;12.10;99.90;;;;;;5069417;28;20455;-69
2021/10/21 10:28:04;;;;;;;2.83;2.63;;;12.20;99.90;;;;;;5052690;28;20464;-69
2021/10/21 10:30:49;;;;;;;3.97;2.80;;;12.30;99.90;;;;;;5050500;28;20463;-68
2021/10/21 10:33:41;;;;;;;2.87;2.60;;;12.30;99.90;;;;;;5055748;28;20602;-68
2021/10/21 10:36:30;;;;;;;2.80;2.60;;;12.30;99.90;;;;;;5065583;28;20458;-69
2021/10/21 10:39:02;;;;;;;4.47;3.03;;;12.30;99.90;;;;;;5063930;28;20455;-69
2021/10/21 10:41:54;;;;;;;3.27;3.00;;;12.30;99.90;;;;;;5055506;28;20492;-69
2021/10/21 10:45:03;;;;;;;2.67;2.47;;;12.30;99.90;;;;;;5055651;28;20623;-69
2021/10/21 10:47:46;;;;;;;3.70;3.40;;;12.30;99.90;;;;;;5043951;28;20498;-70
2021/10/21 10:50:40;;;;;;;2.90;2.70;;;12.40;99.90;;;;;;5052164;28;20627;-69
2021/10/21 10:53:12;;;;;;;3.47;2.70;;;12.40;99.90;;;;;;5049309;28;20537;-69
2021/10/21 10:55:46;;;;;;;3.40;3.10;;;12.50;99.90;;;;;;5061363;28;20516;-69
2021/10/21 10:58:18;;;;;;;3.27;3.07;;;12.60;99.90;;;;;;5050210;28;20538;-70
2021/10/21 11:00:50;;;;;;;3.00;2.80;;;12.80;99.90;;;;;;5033755;28;20456;-69
2021/10/21 11:03:41;;;;;;;5.73;3.43;;;12.80;99.90;;;;;;5054806;28;20873;-70
2021/10/21 11:06:14;;;;;;;3.07;2.67;;;12.80;99.90;;;;;;5049272;28;20458;-69
2021/10/21 11:08:54;;;;;;;3.10;2.80;;;12.80;99.90;;;;;;5055723;28;20460;-69
2021/10/21 11:11:45;;;;;;;2.87;2.67;;;12.70;99.90;;;;;;5057150;28;20543;-69
2021/10/21 11:14:17;;;;;;;3.20;2.93;;;12.70;99.90;;;;;;5046560;28;20460;-69
2021/10/21 11:16:54;;;;;;;3.77;2.30;;;12.60;99.90;;;;;;5061865;28;20486;-69
2021/10/21 11:19:56;;;;;;;4.10;2.80;;;12.70;99.90;;;;;;5048083;28;20471;-69
2021/10/21 11:22:41;;;;;;;2.90;2.70;;;12.60;99.90;;;;;;5044449;28;20489;-69
2021/10/21 11:25:13;;;;;;;2.47;2.27;;;12.60;99.90;;;;;;5047621;28;20464;-69
2021/10/21 11:27:46;;;;;;;4.40;2.77;;;12.60;99.90;;;;;;5033620;28;20966;-69
2021/10/21 11:30:20;;;;;;;3.40;3.00;;;12.50;99.90;;;;;;5048170;28;20491;-69
2021/10/21 11:33:08;;;;;;;2.73;2.43;;;12.50;99.90;;;;;;5067361;28;20510;-69
2021/10/21 11:35:42;;;;;;;4.00;2.77;;;12.50;99.90;;;;;;5047290;28;20543;-69
2021/10/21 11:38:13;;;;;;;3.30;2.60;;;12.50;99.90;;;;;;5048668;28;20452;-70
2021/10/21 11:40:46;;;;;;;2.63;2.43;;;12.50;99.90;;;;;;5043322;28;20451;-70
2021/10/21 11:43:22;;;;;;;3.57;2.50;;;12.50;99.90;;;;;;5060750;28;20500;-70
2021/10/21 11:45:58;;;;;;;2.50;2.30;;;12.50;99.90;;;;;;5053668;28;20448;-69
2021/10/21 11:48:31;;;;;;;2.63;2.43;;;12.60;99.90;;;;;;5057357;28;20475;-69
2021/10/21 11:51:05;;;;;;;2.80;2.60;;;12.60;99.90;;;;;;5060319;28;20891;-69
2021/10/21 11:53:36;;;;;;;2.80;2.60;;;12.50;99.90;;;;;;5059406;28;20578;-69
2021/10/21 11:56:07;;;;;;;4.00;2.40;;;12.60;99.90;;;;;;5072165;28;20449;-69
2021/10/21 11:58:45;;;;;;;2.90;2.70;;;12.50;99.90;;;;;;5054973;28;21567;-69
2021/10/21 12:01:22;;;;;;;3.20;2.90;;;12.50;99.90;;;;;;5051960;28;20444;-69
2021/10/21 12:03:53;;;;;;;2.87;2.57;;;12.40;99.90;;;;;;5049231;28;20705;-69
2021/10/21 12:06:29;;;;;;;2.80;2.53;;;12.40;99.90;;;;;;5062031;28;20465;-69
2021/10/21 12:09:05;;;;;;;2.80;2.50;;;12.30;99.90;;;;;;5064302;28;20459;-69
2021/10/21 12:11:41;;;;;;;2.93;2.73;;;12.20;99.90;;;;;;5061081;28;20828;-69
2021/10/21 12:14:12;;;;;;;2.73;2.53;;;12.10;99.90;;;;;;5054823;28;20462;-69
2021/10/21 12:16:42;;;;;;;3.03;2.80;;;12.10;99.90;;;;;;5064447;28;20463;-69
2021/10/21 12:19:20;;;;;;;2.50;2.30;;;12.10;99.90;;;;;;5053646;28;20965;-69
2021/10/21 12:21:53;;;;;;;2.50;2.40;;;12.10;99.90;;;;;;5054601;28;20471;-69
2021/10/21 12:24:25;;;;;;;3.77;3.07;;;12.00;99.90;;;;;;5061022;28;20491;-69
2021/10/21 12:26:58;;;;;;;3.30;3.10;;;12.00;99.90;;;;;;5067175;28;20869;-69
2021/10/21 12:29:33;;;;;;;3.33;3.13;;;12.10;99.90;;;;;;5059599;28;20463;-69
2021/10/21 12:32:10;;;;;;;3.63;3.27;;;12.00;99.90;;;;;;5066716;28;20455;-69
2021/10/21 12:34:41;;;;;;;2.90;2.60;;;12.00;99.90;;;;;;5040823;28;20459;-69
2021/10/21 12:37:18;;;;;;;2.87;2.67;;;12.00;99.90;;;;;;5056055;28;20543;-69
2021/10/21 12:39:48;;;;;;;2.80;2.60;;;12.00;99.90;;;;;;5046003;28;20451;-69
2021/10/21 12:42:22;;;;;;;2.53;2.33;;;12.00;99.90;;;;;;5047919;28;20829;-69
2021/10/21 12:44:58;;;;;;;3.20;3.00;;;11.90;99.90;;;;;;5049770;28;20464;-69
2021/10/21 12:47:33;;;;;;;2.27;2.17;;;12.00;99.90;;;;;;5056708;28;20850;-69
2021/10/21 12:50:07;;;;;;;2.53;2.37;;;12.00;99.90;;;;;;5051317;28;20918;-69
2021/10/21 12:52:40;;;;;;;3.73;2.93;;;12.20;99.90;;;;;;5059367;28;20447;-69
2021/10/21 12:55:14;;;;;;;3.90;3.00;;;12.30;99.90;;;;;;5051165;28;20558;-69
2021/10/21 12:57:49;;;;;;;3.07;2.77;;;12.30;99.90;;;;;;5049193;28;20514;-69
2021/10/21 13:00:30;;;;;;;3.30;3.00;;;12.40;99.90;;;;;;5047238;28;20462;-69
2021/10/21 13:03:06;;;;;;;2.90;2.70;;;12.40;99.90;;;;;;5056713;28;20490;-69
2021/10/21 13:05:37;;;;;;;2.63;2.43;;;12.50;99.90;;;;;;5054669;28;20478;-69
2021/10/21 13:08:11;;;;;;;3.40;2.60;;;12.60;99.90;;;;;;5057851;28;20467;-69
2021/10/21 13:10:46;;;;;;;11.63;2.97;;;12.70;99.90;;;;;;5049148;28;20482;-69
2021/10/21 13:13:24;;;;;;;2.37;2.17;;;12.70;99.90;;;;;;5050971;28;20447;-69
2021/10/21 13:15:55;;;;;;;3.57;3.27;;;12.80;99.90;;;;;;5045185;28;20467;-70